createdAt,value
2022-07-29T00:01:43.133Z,22.70
2022-07-29T00:04:12.668Z,22.70
2022-07-29T00:06:41.114Z,22.70
2022-07-29T00:09:09.152Z,22.60
2022-07-29T00:11:37.034Z,22.60
2022-07-29T00:14:05.111Z,22.60
2022-07-29T00:16:32.997Z,22.50
2022-07-29T00:19:02.476Z,22.40
2022-07-29T00:21:31.928Z,22.50
2022-07-29T00:23:59.904Z,22.50
2022-07-29T00:26:32.439Z,22.50
2022-07-29T00:29:31.988Z,22.50
2022-07-29T00:31:49.021Z,22.60
2022-07-29T00:34:30.855Z,22.60
2022-07-29T00:37:00.120Z,22.60
2022-07-29T00:39:28.021Z,22.70
2022-07-29T00:41:56.876Z,22.70
2022-07-29T00:44:24.702Z,22.70
2022-07-29T00:46:52.547Z,22.70
2022-07-29T00:49:20.410Z,22.70
2022-07-29T00:51:49.681Z,22.70
2022-07-29T00:54:19.403Z,22.60
2022-07-29T00:56:47.336Z,22.70
2022-07-29T00:59:15.099Z,22.60
2022-07-29T01:01:42.922Z,22.70
2022-07-29T01:04:10.769Z,22.70
2022-07-29T01:06:38.882Z,22.60
2022-07-29T01:09:07.663Z,22.70
2022-07-29T01:11:37.702Z,22.70
2022-07-29T01:14:07.220Z,22.60
2022-07-29T01:16:41.282Z,22.50
2022-07-29T01:19:18.743Z,22.70
2022-07-29T01:21:53.950Z,22.60
2022-07-29T01:24:53.745Z,22.60
2022-07-29T01:27:37.842Z,22.60
2022-07-29T01:30:09.822Z,22.70
2022-07-29T01:32:40.038Z,22.70
2022-07-29T01:35:17.631Z,22.60
2022-07-29T01:37:49.077Z,22.60
2022-07-29T01:40:24.090Z,22.60
2022-07-29T01:42:56.350Z,22.60
2022-07-29T01:45:30.485Z,22.60
2022-07-29T01:48:02.496Z,22.50
2022-07-29T01:50:36.432Z,22.50
2022-07-29T01:53:08.381Z,22.40
2022-07-29T01:55:40.670Z,22.40
2022-07-29T01:58:09.758Z,22.40
2022-07-29T02:00:41.102Z,22.40
2022-07-29T02:03:13.782Z,22.40
2022-07-29T02:05:44.372Z,22.40
2022-07-29T02:08:14.203Z,22.40
2022-07-29T02:10:44.280Z,22.40
2022-07-29T02:13:14.642Z,22.40
2022-07-29T02:15:45.736Z,22.40
2022-07-29T02:18:18.447Z,22.30
2022-07-29T02:20:49.358Z,22.30
2022-07-29T02:23:20.804Z,22.40
2022-07-29T02:25:51.262Z,22.30
2022-07-29T02:28:22.286Z,22.40
2022-07-29T02:30:54.417Z,22.40
2022-07-29T02:33:25.332Z,22.30
2022-07-29T02:35:54.118Z,22.40
2022-07-29T02:38:41.325Z,22.30
2022-07-29T02:41:13.292Z,22.30
2022-07-29T02:43:42.829Z,22.30
2022-07-29T02:46:29.377Z,22.30
2022-07-29T02:49:01.603Z,22.20
2022-07-29T02:51:43.626Z,22.10
2022-07-29T02:54:16.669Z,22.20
2022-07-29T02:56:47.476Z,22.10
2022-07-29T02:59:21.982Z,22.10
2022-07-29T03:01:52.322Z,22.10
2022-07-29T03:04:22.285Z,22.20
2022-07-29T03:06:51.751Z,22.00
2022-07-29T03:09:20.455Z,22.00
2022-07-29T03:11:49.719Z,22.00
2022-07-29T03:14:21.226Z,21.90
2022-07-29T03:16:51.843Z,21.90
2022-07-29T03:19:21.082Z,21.90
2022-07-29T03:21:49.109Z,21.90
2022-07-29T03:24:31.521Z,21.80
2022-07-29T03:27:00.604Z,21.80
2022-07-29T03:29:33.008Z,21.80
2022-07-29T03:32:07.294Z,21.80
2022-07-29T03:34:36.915Z,21.80
2022-07-29T03:37:04.983Z,21.80
2022-07-29T03:39:37.183Z,21.80
2022-07-29T03:42:08.866Z,21.80
2022-07-29T03:44:38.207Z,21.80
2022-07-29T03:47:10.103Z,21.90
2022-07-29T03:49:39.618Z,21.80
2022-07-29T03:52:08.123Z,21.70
2022-07-29T03:54:36.339Z,21.60
2022-07-29T03:57:05.525Z,21.50
2022-07-29T03:59:35.710Z,21.40
2022-07-29T04:02:05.531Z,21.30
2022-07-29T04:04:37.115Z,21.30
2022-07-29T04:07:05.728Z,21.30
2022-07-29T04:09:34.042Z,21.20
2022-07-29T04:12:04.362Z,21.20
2022-07-29T04:14:33.182Z,21.20
2022-07-29T04:17:01.532Z,21.10
2022-07-29T04:19:29.459Z,21.10
2022-07-29T04:21:59.350Z,21.10
2022-07-29T04:24:27.936Z,21.00
2022-07-29T04:26:56.116Z,21.00
2022-07-29T04:29:24.598Z,21.10
2022-07-29T04:31:52.418Z,21.10
2022-07-29T04:34:21.239Z,21.00
2022-07-29T04:36:49.265Z,21.20
2022-07-29T04:39:22.968Z,21.20
2022-07-29T04:41:52.586Z,21.30
2022-07-29T04:44:28.631Z,21.10
2022-07-29T04:46:57.657Z,21.10
2022-07-29T04:49:26.303Z,21.10
2022-07-29T04:51:54.319Z,21.20
2022-07-29T04:54:23.710Z,21.00
2022-07-29T04:56:52.826Z,21.10
2022-07-29T04:59:20.774Z,21.10
2022-07-29T05:01:48.806Z,21.20
2022-07-29T05:04:17.102Z,21.30
2022-07-29T05:06:47.683Z,21.40
2022-07-29T05:09:15.551Z,21.60
2022-07-29T05:11:47.557Z,21.80
2022-07-29T05:14:15.725Z,22.00
2022-07-29T05:16:44.376Z,22.30
2022-07-29T05:19:14.404Z,23.30
2022-07-29T05:21:42.953Z,24.80
2022-07-29T05:24:10.843Z,26.10
2022-07-29T05:26:38.889Z,27.40
2022-07-29T05:29:43.282Z,28.90
2022-07-29T05:32:01.481Z,30.00
2022-07-29T05:34:29.344Z,30.60
2022-07-29T05:37:00.447Z,31.40
2022-07-29T05:39:47.311Z,32.10
2022-07-29T05:42:16.174Z,32.80
2022-07-29T05:44:45.556Z,33.40
2022-07-29T05:47:13.744Z,33.70
2022-07-29T05:49:41.610Z,34.10
2022-07-29T05:52:09.931Z,34.60
2022-07-29T05:54:38.077Z,35.10
2022-07-29T05:57:06.321Z,35.40
2022-07-29T05:59:37.789Z,35.90
2022-07-29T06:02:07.172Z,35.80
2022-07-29T06:04:35.549Z,36.00
2022-07-29T06:07:03.593Z,36.30
2022-07-29T06:09:31.828Z,36.60
2022-07-29T06:11:59.934Z,36.60
2022-07-29T06:14:29.350Z,36.60
2022-07-29T06:16:57.740Z,37.00
2022-07-29T06:19:31.761Z,37.40
2022-07-29T06:21:59.736Z,37.40
2022-07-29T06:24:28.161Z,37.70
2022-07-29T06:26:56.941Z,37.80
2022-07-29T06:29:25.493Z,37.80
2022-07-29T06:31:53.774Z,37.90
2022-07-29T06:34:21.722Z,37.60
2022-07-29T06:36:52.223Z,37.70
2022-07-29T06:39:30.233Z,38.10
2022-07-29T06:41:58.173Z,38.10
2022-07-29T06:44:26.445Z,38.40
2022-07-29T06:46:55.832Z,38.70
2022-07-29T06:49:25.316Z,38.90
2022-07-29T06:51:55.079Z,39.00
2022-07-29T06:54:23.566Z,37.90
2022-07-29T06:56:51.367Z,37.30
2022-07-29T06:59:20.581Z,37.60
2022-07-29T07:01:52.785Z,38.40
2022-07-29T07:04:21.389Z,39.50
2022-07-29T07:06:49.334Z,40.20
2022-07-29T07:09:18.724Z,40.20
2022-07-29T07:11:46.650Z,39.80
2022-07-29T07:14:17.960Z,39.80
2022-07-29T07:16:45.988Z,39.60
2022-07-29T07:19:14.084Z,38.70
2022-07-29T07:21:42.092Z,37.50
2022-07-29T07:24:10.871Z,36.90
2022-07-29T07:26:40.971Z,36.60
2022-07-29T07:29:08.940Z,36.60
2022-07-29T07:31:38.420Z,37.30
2022-07-29T07:34:06.542Z,37.60
2022-07-29T07:36:34.838Z,37.80
2022-07-29T07:39:03.377Z,37.90
2022-07-29T07:41:32.584Z,37.50
2022-07-29T07:44:02.116Z,37.50
2022-07-29T07:46:29.976Z,38.40
2022-07-29T07:48:57.797Z,39.70
2022-07-29T07:51:25.698Z,40.90
2022-07-29T07:53:53.606Z,40.90
2022-07-29T07:56:21.799Z,39.90
2022-07-29T07:58:50.649Z,38.70
2022-07-29T08:01:22.317Z,36.90
2022-07-29T08:03:51.809Z,35.50
2022-07-29T08:06:19.905Z,34.40
2022-07-29T08:08:47.742Z,33.90
2022-07-29T08:11:15.556Z,33.60
2022-07-29T08:13:44.176Z,34.60
2022-07-29T08:16:16.188Z,36.20
2022-07-29T08:18:47.348Z,37.30
2022-07-29T08:21:15.902Z,36.90
2022-07-29T08:23:59.648Z,36.20
2022-07-29T08:26:30.199Z,35.90
2022-07-29T08:28:59.228Z,37.20
2022-07-29T08:31:27.307Z,38.50
2022-07-29T08:34:01.876Z,38.90
2022-07-29T08:36:31.242Z,39.30
2022-07-29T08:39:03.752Z,40.20
2022-07-29T08:41:33.159Z,41.40
2022-07-29T08:44:01.847Z,42.10
2022-07-29T08:46:32.028Z,42.80
2022-07-29T08:49:02.137Z,43.50
2022-07-29T08:51:30.258Z,44.30
2022-07-29T08:53:58.417Z,44.60
2022-07-29T08:56:26.818Z,44.90
2022-07-29T08:58:54.949Z,44.90
2022-07-29T09:01:36.321Z,45.60
2022-07-29T09:04:13.824Z,45.50
2022-07-29T09:06:46.373Z,45.60
2022-07-29T09:09:15.721Z,45.70
2022-07-29T09:11:44.448Z,45.90
2022-07-29T09:14:14.670Z,46.70
2022-07-29T09:17:03.826Z,47.10
2022-07-29T09:19:35.749Z,46.90
2022-07-29T09:22:07.170Z,46.70
2022-07-29T09:24:46.141Z,46.70
2022-07-29T09:27:24.589Z,46.90
2022-07-29T09:29:59.972Z,47.30
2022-07-29T09:32:28.305Z,47.10
2022-07-29T09:35:19.076Z,46.40
2022-07-29T09:37:47.694Z,45.20
2022-07-29T09:40:17.812Z,44.70
2022-07-29T09:42:48.723Z,44.10
2022-07-29T09:45:31.010Z,44.60
2022-07-29T09:48:04.049Z,45.00
2022-07-29T09:50:42.239Z,44.70
2022-07-29T09:53:12.967Z,43.40
2022-07-29T09:56:00.675Z,42.20
2022-07-29T09:58:28.770Z,41.00
2022-07-29T10:00:57.816Z,39.80
2022-07-29T10:03:26.174Z,39.00
2022-07-29T10:06:18.322Z,38.70
2022-07-29T10:08:46.279Z,39.10
2022-07-29T10:11:18.546Z,39.80
2022-07-29T10:13:48.496Z,40.00
2022-07-29T10:16:17.527Z,39.40
2022-07-29T10:18:47.782Z,38.40
2022-07-29T10:21:35.344Z,38.20
2022-07-29T10:24:04.390Z,38.40
2022-07-29T10:26:32.768Z,39.00
2022-07-29T10:29:01.433Z,39.30
2022-07-29T10:31:36.375Z,39.80
2022-07-29T10:34:10.797Z,40.00
2022-07-29T10:36:51.617Z,40.00
2022-07-29T10:39:44.695Z,40.10
2022-07-29T10:42:29.728Z,41.00
2022-07-29T10:45:04.361Z,41.40
2022-07-29T10:47:35.432Z,41.80
2022-07-29T10:50:05.321Z,41.70
2022-07-29T10:52:58.652Z,41.80
2022-07-29T10:55:35.721Z,42.40
2022-07-29T10:58:15.407Z,42.50
2022-07-29T11:00:46.813Z,42.20
2022-07-29T11:03:49.185Z,41.60
2022-07-29T11:06:27.024Z,41.20
2022-07-29T11:09:34.962Z,41.10
2022-07-29T11:12:06.737Z,41.00
2022-07-29T11:15:16.442Z,40.60
2022-07-29T11:18:06.014Z,40.10
2022-07-29T11:20:39.259Z,39.50
2022-07-29T11:23:33.904Z,39.10
2022-07-29T11:26:24.892Z,38.60
2022-07-29T11:28:56.853Z,37.70
2022-07-29T11:31:39.156Z,37.60
2022-07-29T11:34:29.790Z,37.20
2022-07-29T11:37:18.658Z,36.80
2022-07-29T11:39:49.163Z,36.60
2022-07-29T11:42:42.056Z,36.40
2022-07-29T11:48:29.335Z,36.70
2022-07-29T11:50:52.092Z,36.80
2022-07-29T11:53:20.408Z,37.00
2022-07-29T11:55:56.313Z,37.20
2022-07-29T11:58:29.340Z,37.40
2022-07-29T12:01:04.512Z,37.60
2022-07-29T12:03:35.954Z,37.70
2022-07-29T12:06:13.103Z,37.80
2022-07-29T12:08:44.456Z,38.10
2022-07-29T12:11:20.497Z,38.10
2022-07-29T12:13:50.917Z,38.00
2022-07-29T12:16:26.006Z,37.90
2022-07-29T12:19:02.488Z,37.90
2022-07-29T12:21:31.557Z,37.90
2022-07-29T12:24:08.826Z,37.80
2022-07-29T12:26:37.983Z,37.80
2022-07-29T12:29:20.325Z,38.00
2022-07-29T12:32:03.588Z,38.00
2022-07-29T12:34:32.173Z,38.20
2022-07-29T12:37:00.555Z,38.00
2022-07-29T12:39:29.170Z,37.70
2022-07-29T12:42:04.401Z,37.50
2022-07-29T12:44:50.892Z,36.90
2022-07-29T12:47:20.124Z,36.20
2022-07-29T12:49:48.793Z,35.80
2022-07-29T12:52:26.978Z,35.40
2022-07-29T12:54:54.951Z,35.50
2022-07-29T12:57:23.170Z,35.50
2022-07-29T13:00:03.977Z,35.30
2022-07-29T13:02:32.030Z,35.20
2022-07-29T13:05:01.856Z,34.80
2022-07-29T13:07:54.558Z,34.70
2022-07-29T13:10:24.410Z,34.60
2022-07-29T13:13:11.536Z,34.40
2022-07-29T13:15:42.047Z,34.30
2022-07-29T13:18:31.321Z,34.20
2022-07-29T13:21:11.942Z,34.30
2022-07-29T13:23:40.279Z,34.30
2022-07-29T13:26:08.834Z,34.10
2022-07-29T13:28:37.381Z,33.90
2022-07-29T13:31:07.283Z,33.80
2022-07-29T13:33:35.296Z,33.70
2022-07-29T13:36:03.347Z,33.40
2022-07-29T13:38:31.488Z,32.90
2022-07-29T13:40:59.778Z,32.50
2022-07-29T13:43:27.763Z,32.00
2022-07-29T13:45:55.715Z,31.30
2022-07-29T13:48:25.063Z,30.70
2022-07-29T13:50:53.001Z,30.20
2022-07-29T13:53:27.136Z,29.80
2022-07-29T13:55:55.785Z,29.50
2022-07-29T13:58:23.802Z,29.30
2022-07-29T14:00:51.813Z,29.10
2022-07-29T14:03:19.857Z,29.00
2022-07-29T14:05:49.140Z,29.00
2022-07-29T14:08:17.113Z,28.90
2022-07-29T14:10:44.989Z,28.80
2022-07-29T14:13:24.299Z,28.70
2022-07-29T14:15:52.772Z,28.50
2022-07-29T14:18:20.933Z,28.60
2022-07-29T14:20:50.522Z,28.70
2022-07-29T14:23:18.489Z,28.70
2022-07-29T14:25:49.455Z,28.70
2022-07-29T14:28:17.891Z,28.70
2022-07-29T14:30:45.855Z,28.60
2022-07-29T14:33:13.811Z,28.50
2022-07-29T14:35:42.750Z,28.40
2022-07-29T14:38:12.075Z,28.30
2022-07-29T14:40:40.427Z,28.20
2022-07-29T14:43:08.389Z,28.10
2022-07-29T14:45:36.354Z,28.00
2022-07-29T14:48:04.408Z,28.00
2022-07-29T14:50:32.425Z,28.10
2022-07-29T14:53:00.377Z,28.00
2022-07-29T14:55:33.217Z,28.10
2022-07-29T14:58:08.958Z,28.10
2022-07-29T15:00:39.144Z,28.20
2022-07-29T15:03:11.326Z,28.40
2022-07-29T15:05:39.709Z,28.60
2022-07-29T15:08:09.038Z,28.90
2022-07-29T15:10:38.733Z,29.20
2022-07-29T15:13:06.712Z,29.40
2022-07-29T15:15:34.789Z,29.50
2022-07-29T15:18:02.723Z,29.50
2022-07-29T15:20:30.643Z,29.50
2022-07-29T15:22:58.669Z,29.40
2022-07-29T15:25:28.351Z,29.50
2022-07-29T15:28:01.178Z,29.40
2022-07-29T15:30:34.041Z,29.30
2022-07-29T15:33:03.357Z,29.20
2022-07-29T15:35:31.310Z,29.00
2022-07-29T15:37:59.373Z,28.80
2022-07-29T15:40:27.590Z,28.60
2022-07-29T15:42:58.410Z,28.50
2022-07-29T15:45:31.738Z,28.50
2022-07-29T15:48:01.137Z,28.40
2022-07-29T15:50:29.071Z,28.30
2022-07-29T15:52:57.041Z,28.10
2022-07-29T15:55:25.338Z,28.00
2022-07-29T15:57:56.158Z,27.90
2022-07-29T16:00:29.491Z,27.70
2022-07-29T16:02:57.504Z,27.50
2022-07-29T16:05:25.536Z,27.30
2022-07-29T16:07:53.928Z,27.20
2022-07-29T16:10:22.094Z,27.00
2022-07-29T16:12:49.980Z,26.80
2022-07-29T16:15:17.878Z,26.60
2022-07-29T16:17:47.165Z,26.50
2022-07-29T16:20:15.074Z,26.30
2022-07-29T16:22:43.203Z,26.00
2022-07-29T16:25:11.287Z,25.90
2022-07-29T16:27:39.271Z,25.80
2022-07-29T16:30:09.957Z,25.60
2022-07-29T16:32:38.225Z,25.40
2022-07-29T16:35:09.957Z,25.30
2022-07-29T16:37:38.312Z,25.20
2022-07-29T16:40:11.519Z,25.10
2022-07-29T16:42:47.746Z,25.20
2022-07-29T16:45:16.322Z,25.10
2022-07-29T16:47:45.993Z,25.00
2022-07-29T16:50:15.235Z,24.80
2022-07-29T16:52:43.135Z,24.60
2022-07-29T16:55:11.137Z,24.50
2022-07-29T16:57:39.043Z,24.40
2022-07-29T17:00:08.226Z,24.40
2022-07-29T17:02:37.392Z,24.20
2022-07-29T17:05:06.346Z,24.10
2022-07-29T17:07:35.871Z,24.00
2022-07-29T17:10:05.130Z,24.00
2022-07-29T17:12:33.518Z,23.90
2022-07-29T17:15:01.549Z,23.80
2022-07-29T17:17:38.728Z,23.90
2022-07-29T17:20:17.831Z,23.80
2022-07-29T17:22:47.081Z,23.80
2022-07-29T17:25:20.597Z,23.90
2022-07-29T17:27:49.486Z,23.90
2022-07-29T17:30:17.597Z,23.90
2022-07-29T17:32:45.501Z,23.80
2022-07-29T17:35:31.247Z,23.80
2022-07-29T17:38:00.570Z,23.80
2022-07-29T17:40:29.205Z,23.90
2022-07-29T17:42:57.342Z,23.90
2022-07-29T17:45:25.257Z,23.80
2022-07-29T17:47:53.227Z,23.80
2022-07-29T17:50:21.107Z,23.70
2022-07-29T17:52:49.014Z,23.70
2022-07-29T17:55:18.575Z,23.80
2022-07-29T17:57:46.490Z,23.80
2022-07-29T18:00:17.332Z,23.80
2022-07-29T18:02:45.346Z,23.70
2022-07-29T18:05:13.651Z,23.70
2022-07-29T18:07:44.645Z,23.60
2022-07-29T18:10:12.561Z,23.50
2022-07-29T18:12:41.844Z,23.40
2022-07-29T18:15:10.392Z,23.30
2022-07-29T18:17:56.790Z,23.30
2022-07-29T18:20:26.151Z,23.20
2022-07-29T18:22:54.279Z,23.00
2022-07-29T18:25:22.556Z,22.90
2022-07-29T18:27:52.279Z,22.80
2022-07-29T18:30:20.466Z,22.70
2022-07-29T18:33:18.137Z,22.70
2022-07-29T18:35:37.499Z,22.60
2022-07-29T18:38:06.035Z,22.60
2022-07-29T18:40:34.256Z,22.60
2022-07-29T18:43:03.639Z,22.40
2022-07-29T18:45:31.537Z,22.30
2022-07-29T18:48:01.099Z,22.20
2022-07-29T18:50:30.091Z,22.20
2022-07-29T18:53:01.122Z,22.30
2022-07-29T18:55:29.108Z,22.30
2022-07-29T18:57:57.664Z,22.30
2022-07-29T19:00:28.578Z,22.10
2022-07-29T19:02:57.316Z,22.10
2022-07-29T19:05:25.574Z,22.10
2022-07-29T19:07:54.794Z,22.10
2022-07-29T19:10:23.491Z,22.10
2022-07-29T19:12:52.055Z,22.10
2022-07-29T19:15:20.705Z,22.10
2022-07-29T19:17:50.890Z,22.10
2022-07-29T19:20:19.056Z,22.10
2022-07-29T19:22:47.573Z,22.10
2022-07-29T19:25:15.702Z,22.10
2022-07-29T19:27:43.780Z,22.10
2022-07-29T19:30:12.881Z,22.10
2022-07-29T19:32:41.048Z,22.20
2022-07-29T19:35:28.733Z,22.20
2022-07-29T19:37:58.374Z,22.20
2022-07-29T19:40:27.865Z,22.30
2022-07-29T19:42:57.064Z,22.30
2022-07-29T19:45:26.136Z,22.40
2022-07-29T19:47:59.071Z,22.40
2022-07-29T19:50:30.894Z,22.50
2022-07-29T19:52:59.789Z,22.50
2022-07-29T19:55:28.231Z,22.50
2022-07-29T19:57:56.485Z,22.50
2022-07-29T20:00:25.917Z,22.50
2022-07-29T20:02:53.993Z,22.40
2022-07-29T20:05:21.987Z,22.30
2022-07-29T20:07:57.729Z,22.30
2022-07-29T20:10:26.053Z,22.10
2022-07-29T20:12:55.174Z,22.00
2022-07-29T20:15:23.446Z,22.00
2022-07-29T20:17:56.612Z,22.00
2022-07-29T20:20:26.008Z,22.00
2022-07-29T20:22:54.263Z,22.00
2022-07-29T20:25:24.002Z,22.00
2022-07-29T20:27:52.491Z,22.10
2022-07-29T20:30:21.170Z,22.10
2022-07-29T20:32:49.219Z,22.20
2022-07-29T20:35:17.139Z,22.20
2022-07-29T20:37:56.202Z,22.20
2022-07-29T20:40:26.364Z,22.20
2022-07-29T20:42:54.446Z,22.30
2022-07-29T20:45:23.675Z,22.30
2022-07-29T20:47:52.298Z,22.30
2022-07-29T20:50:23.667Z,22.30
2022-07-29T20:52:52.901Z,22.30
2022-07-29T20:55:20.934Z,22.30
2022-07-29T20:57:50.223Z,22.30
2022-07-29T21:00:18.321Z,22.30
2022-07-29T21:02:47.275Z,22.20
2022-07-29T21:05:15.389Z,22.20
2022-07-29T21:07:43.252Z,22.20
2022-07-29T21:10:11.508Z,22.20
2022-07-29T21:12:39.427Z,22.20
2022-07-29T21:15:13.361Z,22.20
2022-07-29T21:17:46.638Z,22.30
2022-07-29T21:20:15.246Z,22.30
2022-07-29T21:22:43.122Z,22.30
2022-07-29T21:25:11.739Z,22.20
2022-07-29T21:27:57.300Z,22.20
2022-07-29T21:30:26.537Z,22.10
2022-07-29T21:32:54.436Z,22.20
2022-07-29T21:35:45.373Z,22.10
2022-07-29T21:38:10.179Z,22.10
2022-07-29T21:40:38.090Z,22.10
2022-07-29T21:43:06.006Z,22.10
2022-07-29T21:45:35.275Z,22.00
2022-07-29T21:48:03.183Z,22.00
2022-07-29T21:50:31.041Z,21.90
2022-07-29T21:52:58.960Z,21.90
2022-07-29T21:55:27.567Z,21.90
2022-07-29T21:57:57.685Z,21.90
2022-07-29T22:00:26.534Z,21.80
2022-07-29T22:02:56.098Z,21.80
2022-07-29T22:05:24.107Z,21.80
2022-07-29T22:07:54.273Z,21.80
2022-07-29T22:10:24.797Z,21.90
2022-07-29T22:12:53.416Z,21.90
2022-07-29T22:15:21.881Z,22.00
2022-07-29T22:17:49.858Z,22.00
2022-07-29T22:20:19.524Z,22.00
2022-07-29T22:22:48.151Z,22.00
2022-07-29T22:25:16.427Z,22.00
2022-07-29T22:27:44.733Z,22.00
2022-07-29T22:30:13.005Z,22.00
2022-07-29T22:32:41.166Z,21.90
2022-07-29T22:35:09.265Z,21.90
2022-07-29T22:37:39.121Z,21.90
2022-07-29T22:40:08.448Z,21.80
2022-07-29T22:42:36.322Z,21.90
2022-07-29T22:45:10.257Z,21.80
2022-07-29T22:47:46.382Z,21.80
2022-07-29T22:50:17.613Z,21.70
2022-07-29T22:52:47.298Z,21.60
2022-07-29T22:55:15.829Z,21.70
2022-07-29T22:57:43.987Z,21.60
2022-07-29T23:00:14.161Z,21.60
2022-07-29T23:02:42.082Z,21.50
2022-07-29T23:05:11.214Z,21.50
2022-07-29T23:07:39.409Z,21.50
2022-07-29T23:10:09.798Z,21.50
2022-07-29T23:12:37.850Z,21.50
2022-07-29T23:15:06.145Z,21.40
2022-07-29T23:17:36.027Z,21.30
2022-07-29T23:20:06.715Z,21.20
2022-07-29T23:22:34.789Z,21.00
2022-07-29T23:25:02.765Z,20.80
2022-07-29T23:27:32.184Z,20.70
2022-07-29T23:30:00.033Z,20.60
2022-07-29T23:32:28.094Z,20.50
2022-07-29T23:34:55.955Z,20.40
2022-07-29T23:37:23.905Z,20.30
2022-07-29T23:39:55.199Z,20.20
2022-07-29T23:42:23.215Z,20.10
2022-07-29T23:44:53.058Z,20.10
2022-07-29T23:47:21.249Z,20.10
2022-07-29T23:49:50.075Z,20.10
2022-07-29T23:52:18.479Z,20.10
2022-07-29T23:54:46.359Z,20.10
2022-07-29T23:57:14.306Z,20.10
2022-07-29T23:59:42.592Z,20.10
